createdAt,value
2022-12-23T00:02:22.671Z,96.17
2022-12-23T00:04:49.800Z,96.19
2022-12-23T00:07:16.941Z,96.54
2022-12-23T00:09:44.003Z,96.11
2022-12-23T00:12:13.981Z,96.02
2022-12-23T00:14:43.972Z,95.91
2022-12-23T00:17:21.979Z,95.78
2022-12-23T00:19:50.022Z,95.79
2022-12-23T00:22:16.911Z,95.53
2022-12-23T00:24:43.948Z,95.34
2022-12-23T00:27:10.847Z,95.44
2022-12-23T00:29:37.732Z,95.14
2022-12-23T00:32:04.869Z,94.31
2022-12-23T00:34:31.758Z,94.20
2022-12-23T00:36:58.829Z,94.17
2022-12-23T00:39:28.907Z,93.68
2022-12-23T00:41:59.075Z,92.93
2022-12-23T00:44:26.029Z,93.03
2022-12-23T00:46:52.994Z,93.14
2022-12-23T00:49:23.446Z,93.34
2022-12-23T00:51:50.570Z,93.28
2022-12-23T00:54:17.786Z,93.36
2022-12-23T00:56:44.762Z,93.23
2022-12-23T00:59:11.707Z,92.98
2022-12-23T01:01:41.812Z,93.00
2022-12-23T01:04:14.667Z,92.54
2022-12-23T01:06:41.625Z,92.55
2022-12-23T01:12:26.909Z,92.86
2022-12-23T01:14:53.838Z,93.38
2022-12-23T01:17:20.987Z,92.92
2022-12-23T01:19:47.966Z,93.22
2022-12-23T01:22:14.780Z,92.97
2022-12-23T01:24:41.830Z,92.91
2022-12-23T01:27:08.790Z,93.21
2022-12-23T01:29:35.627Z,93.30
2022-12-23T01:32:02.603Z,93.45
2022-12-23T01:34:36.026Z,93.61
2022-12-23T01:37:03.865Z,93.45
2022-12-23T01:39:30.667Z,92.91
2022-12-23T01:42:00.688Z,92.76
2022-12-23T01:44:30.742Z,92.75
2022-12-23T01:46:57.653Z,93.17
2022-12-23T01:49:24.594Z,92.91
2022-12-23T01:51:51.647Z,93.02
2022-12-23T01:54:18.512Z,92.80
2022-12-23T01:56:46.272Z,93.10
2022-12-23T01:59:17.240Z,93.14
2022-12-23T02:01:47.337Z,93.33
2022-12-23T02:04:18.271Z,93.47
2022-12-23T02:06:49.782Z,93.37
2022-12-23T02:09:18.626Z,93.60
2022-12-23T02:11:45.997Z,94.26
2022-12-23T02:14:18.981Z,94.39
2022-12-23T02:16:51.108Z,93.85
2022-12-23T02:19:23.223Z,94.02
2022-12-23T02:21:51.489Z,93.56
2022-12-23T02:24:19.067Z,93.58
2022-12-23T02:26:48.989Z,93.61
2022-12-23T02:29:18.982Z,93.67
2022-12-23T02:31:52.828Z,93.71
2022-12-23T02:34:21.957Z,94.06
2022-12-23T02:36:50.340Z,93.87
2022-12-23T02:39:20.749Z,94.43
2022-12-23T02:41:48.985Z,95.01
2022-12-23T02:44:18.928Z,94.54
2022-12-23T02:46:47.745Z,94.36
2022-12-23T02:49:19.218Z,93.84
2022-12-23T02:51:49.327Z,93.50
2022-12-23T02:54:21.156Z,93.76
2022-12-23T02:56:51.379Z,94.21
2022-12-23T02:59:21.387Z,94.64
2022-12-23T03:01:50.041Z,94.38
2022-12-23T03:04:17.233Z,94.25
2022-12-23T03:06:46.665Z,94.84
2022-12-23T03:09:17.863Z,94.25
2022-12-23T03:11:52.484Z,93.98
2022-12-23T03:14:22.594Z,93.74
2022-12-23T03:16:52.595Z,94.33
2022-12-23T03:19:22.438Z,94.65
2022-12-23T03:21:52.551Z,94.63
2022-12-23T03:24:20.769Z,94.51
2022-12-23T03:26:49.057Z,95.03
2022-12-23T03:29:20.928Z,95.10
2022-12-23T03:31:47.941Z,95.01
2022-12-23T03:34:17.508Z,94.88
2022-12-23T03:36:48.760Z,94.51
2022-12-23T03:39:20.089Z,94.76
2022-12-23T03:41:49.355Z,94.67
2022-12-23T03:44:20.149Z,94.83
2022-12-23T03:46:50.788Z,95.34
2022-12-23T03:49:23.690Z,96.01
2022-12-23T03:51:53.713Z,96.25
2022-12-23T03:54:25.391Z,96.08
2022-12-23T03:56:55.549Z,95.76
2022-12-23T03:59:25.396Z,95.62
2022-12-23T04:01:53.869Z,95.29
2022-12-23T04:04:21.342Z,95.18
2022-12-23T04:06:52.693Z,95.59
2022-12-23T04:09:22.383Z,96.38
2022-12-23T04:11:49.732Z,96.49
2022-12-23T04:14:18.543Z,96.82
2022-12-23T04:16:46.096Z,96.86
2022-12-23T04:19:12.987Z,96.61
2022-12-23T04:21:40.103Z,96.32
2022-12-23T04:24:07.297Z,96.32
2022-12-23T04:26:34.271Z,95.97
2022-12-23T04:29:01.149Z,96.35
2022-12-23T04:31:28.034Z,96.08
2022-12-23T04:33:54.904Z,96.01
2022-12-23T04:36:21.820Z,95.76
2022-12-23T04:38:49.048Z,95.34
2022-12-23T04:41:15.863Z,95.19
2022-12-23T04:43:45.388Z,95.48
2022-12-23T04:46:14.680Z,95.44
2022-12-23T04:48:41.633Z,95.97
2022-12-23T04:51:08.467Z,96.17
2022-12-23T04:53:37.138Z,96.10
2022-12-23T04:56:04.599Z,95.49
2022-12-23T04:58:31.622Z,96.06
2022-12-23T05:01:01.943Z,95.57
2022-12-23T05:03:28.948Z,95.66
2022-12-23T05:05:56.189Z,96.39
2022-12-23T05:08:23.108Z,96.92
2022-12-23T05:10:50.045Z,96.38
2022-12-23T05:13:17.019Z,96.61
2022-12-23T05:15:44.501Z,96.29
2022-12-23T05:18:11.665Z,96.43
2022-12-23T05:20:38.713Z,96.20
2022-12-23T05:23:05.741Z,95.58
2022-12-23T05:25:34.809Z,95.47
2022-12-23T05:28:01.764Z,96.06
2022-12-23T05:30:28.754Z,95.52
2022-12-23T05:32:56.116Z,95.58
2022-12-23T05:35:23.910Z,95.80
2022-12-23T05:37:50.986Z,96.77
2022-12-23T05:40:23.284Z,96.67
2022-12-23T05:42:50.901Z,95.91
2022-12-23T05:45:17.790Z,95.79
2022-12-23T05:47:44.788Z,95.42
2022-12-23T05:50:12.367Z,95.75
2022-12-23T05:52:39.500Z,95.56
2022-12-23T05:55:06.839Z,95.49
2022-12-23T05:57:33.631Z,95.61
2022-12-23T06:00:00.611Z,95.21
2022-12-23T06:02:27.763Z,94.75
2022-12-23T06:04:54.667Z,95.08
2022-12-23T06:07:21.563Z,95.41
2022-12-23T06:09:48.485Z,96.29
2022-12-23T06:12:15.423Z,97.27
2022-12-23T06:14:42.349Z,96.92
2022-12-23T06:17:09.321Z,96.74
2022-12-23T06:19:36.422Z,96.19
2022-12-23T06:22:03.348Z,95.78
2022-12-23T06:24:30.194Z,95.96
2022-12-23T06:26:57.680Z,96.55
2022-12-23T06:29:24.760Z,96.50
2022-12-23T06:31:51.801Z,96.43
2022-12-23T06:34:19.008Z,96.18
2022-12-23T06:36:45.955Z,96.96
2022-12-23T06:39:13.155Z,97.34
2022-12-23T06:41:40.032Z,97.56
2022-12-23T06:44:07.244Z,97.06
2022-12-23T06:46:34.381Z,97.19
2022-12-23T06:49:01.393Z,97.24
2022-12-23T06:51:28.313Z,97.83
2022-12-23T06:53:55.135Z,98.25
2022-12-23T06:56:22.369Z,97.66
2022-12-23T06:58:49.311Z,97.86
2022-12-23T07:01:16.268Z,97.66
2022-12-23T07:03:43.336Z,97.73
2022-12-23T07:06:10.239Z,98.62
2022-12-23T07:08:37.151Z,98.83
2022-12-23T07:11:05.385Z,99.11
2022-12-23T07:13:33.205Z,99.12
2022-12-23T07:16:05.075Z,99.60
2022-12-23T07:18:32.005Z,100.00
2022-12-23T07:21:00.601Z,100.00
2022-12-23T07:23:27.711Z,100.00
2022-12-23T07:25:56.036Z,100.00
2022-12-23T07:28:23.611Z,100.00
2022-12-23T07:30:50.749Z,100.00
2022-12-23T07:33:17.623Z,100.00
2022-12-23T07:35:44.662Z,100.00
2022-12-23T07:38:11.492Z,100.00
2022-12-23T07:40:42.284Z,100.00
2022-12-23T07:43:09.539Z,100.00
2022-12-23T07:45:36.456Z,100.00
2022-12-23T07:48:03.424Z,100.00
2022-12-23T07:50:30.438Z,100.00
2022-12-23T07:52:57.688Z,100.00
2022-12-23T07:55:24.664Z,100.00
2022-12-23T07:57:52.310Z,100.00
2022-12-23T08:00:20.030Z,100.00
2022-12-23T08:02:47.338Z,100.00
2022-12-23T08:05:15.240Z,100.00
2022-12-23T08:07:42.556Z,100.00
2022-12-23T08:10:09.713Z,100.00
2022-12-23T08:12:36.795Z,100.00
2022-12-23T08:15:03.864Z,100.00
2022-12-23T08:17:31.162Z,100.00
2022-12-23T08:19:58.110Z,100.00
2022-12-23T08:22:25.301Z,100.00
2022-12-23T08:24:52.906Z,100.00
2022-12-23T08:27:19.776Z,100.00
2022-12-23T08:29:47.047Z,100.00
2022-12-23T08:32:13.976Z,100.00
2022-12-23T08:34:40.826Z,100.00
2022-12-23T08:37:07.933Z,100.00
2022-12-23T08:39:35.000Z,100.00
2022-12-23T08:42:02.037Z,100.00
2022-12-23T08:44:28.979Z,100.00
2022-12-23T08:46:56.189Z,100.00
2022-12-23T08:49:23.406Z,100.00
2022-12-23T08:51:50.354Z,100.00
2022-12-23T08:54:20.003Z,100.00
2022-12-23T08:56:47.018Z,100.00
2022-12-23T08:59:19.214Z,100.00
2022-12-23T09:01:47.487Z,100.00
2022-12-23T09:04:14.743Z,100.00
2022-12-23T09:06:42.043Z,100.00
2022-12-23T09:09:09.960Z,100.00
2022-12-23T09:11:37.570Z,100.00
2022-12-23T09:14:04.949Z,100.00
2022-12-23T09:16:32.065Z,100.00
2022-12-23T09:18:59.430Z,100.00
2022-12-23T09:21:26.679Z,100.00
2022-12-23T09:23:53.616Z,100.00
2022-12-23T09:26:23.569Z,100.00
2022-12-23T09:28:50.520Z,100.00
2022-12-23T09:31:17.804Z,100.00
2022-12-23T09:33:47.176Z,100.00
2022-12-23T09:36:14.359Z,100.00
2022-12-23T09:38:41.229Z,100.00
2022-12-23T09:41:11.233Z,100.00
2022-12-23T09:43:41.229Z,100.00
2022-12-23T09:46:11.411Z,100.00
2022-12-23T09:48:42.953Z,100.00
2022-12-23T09:51:10.995Z,100.00
2022-12-23T09:53:41.023Z,100.00
2022-12-23T09:56:16.163Z,100.00
2022-12-23T09:58:49.247Z,100.00
2022-12-23T10:01:16.515Z,100.00
2022-12-23T10:03:45.074Z,100.00
2022-12-23T10:06:15.294Z,100.00
2022-12-23T10:08:45.236Z,100.00
2022-12-23T10:11:15.245Z,100.00
2022-12-23T10:13:44.196Z,100.00
2022-12-23T10:16:14.348Z,100.00
2022-12-23T10:18:45.561Z,100.00
2022-12-23T10:21:17.022Z,100.00
2022-12-23T10:23:46.913Z,100.00
2022-12-23T10:26:21.146Z,100.00
2022-12-23T10:28:48.073Z,100.00
2022-12-23T10:31:39.097Z,100.00
2022-12-23T10:34:12.514Z,100.00
2022-12-23T10:36:41.099Z,100.00
2022-12-23T10:39:17.974Z,100.00
2022-12-23T10:41:48.009Z,100.00
2022-12-23T10:44:15.465Z,100.00
2022-12-23T10:46:45.616Z,100.00
2022-12-23T10:49:20.940Z,100.00
2022-12-23T10:51:49.239Z,100.00
2022-12-23T10:54:19.478Z,100.00
2022-12-23T10:56:46.778Z,100.00
2022-12-23T10:59:16.133Z,100.00
2022-12-23T11:01:45.601Z,100.00
2022-12-23T11:04:15.468Z,100.00
2022-12-23T11:06:44.605Z,100.00
2022-12-23T11:09:16.551Z,100.00
2022-12-23T11:11:46.490Z,100.00
2022-12-23T11:14:16.507Z,100.00
2022-12-23T11:16:46.042Z,100.00
2022-12-23T11:19:16.366Z,100.00
2022-12-23T11:21:54.459Z,100.00
2022-12-23T11:24:22.600Z,100.00
2022-12-23T11:26:51.389Z,100.00
2022-12-23T11:29:23.409Z,100.00
2022-12-23T11:31:51.034Z,100.00
2022-12-23T11:34:20.187Z,100.00
2022-12-23T11:36:58.707Z,100.00
2022-12-23T11:39:33.216Z,100.00
2022-12-23T11:42:03.255Z,100.00
2022-12-23T11:44:32.437Z,100.00
2022-12-23T11:47:17.762Z,100.00
2022-12-23T11:49:49.182Z,100.00
2022-12-23T11:52:18.543Z,100.00
2022-12-23T11:54:52.815Z,100.00
2022-12-23T11:57:24.162Z,100.00
2022-12-23T11:59:56.356Z,100.00
2022-12-23T12:02:26.607Z,100.00
2022-12-23T12:04:56.694Z,100.00
2022-12-23T12:07:23.946Z,100.00
2022-12-23T12:09:51.622Z,100.00
2022-12-23T12:12:21.391Z,100.00
2022-12-23T12:14:51.424Z,100.00
2022-12-23T12:17:20.956Z,100.00
2022-12-23T12:19:48.244Z,100.00
2022-12-23T12:22:24.567Z,100.00
2022-12-23T12:24:53.508Z,100.00
2022-12-23T12:27:23.613Z,100.00
2022-12-23T12:29:51.882Z,100.00
2022-12-23T12:32:23.079Z,100.00
2022-12-23T12:34:53.848Z,100.00
2022-12-23T12:37:24.117Z,100.00
2022-12-23T12:39:51.496Z,100.00
2022-12-23T12:42:21.627Z,100.00
2022-12-23T12:44:50.284Z,100.00
2022-12-23T12:47:51.918Z,100.00
2022-12-23T12:50:11.737Z,100.00
2022-12-23T12:52:41.090Z,100.00
2022-12-23T12:55:13.838Z,100.00
2022-12-23T12:57:41.062Z,100.00
2022-12-23T13:00:15.383Z,100.00
2022-12-23T13:02:45.612Z,100.00
2022-12-23T13:05:21.037Z,100.00
2022-12-23T13:07:48.395Z,100.00
2022-12-23T13:10:18.491Z,100.00
2022-12-23T13:12:51.955Z,100.00
2022-12-23T13:15:22.378Z,100.00
2022-12-23T13:17:49.642Z,100.00
2022-12-23T13:20:19.581Z,100.00
2022-12-23T13:22:49.637Z,100.00
2022-12-23T13:25:17.963Z,100.00
2022-12-23T13:27:49.191Z,100.00
2022-12-23T13:30:18.141Z,100.00
2022-12-23T13:32:48.278Z,100.00
2022-12-23T13:35:19.142Z,99.34
2022-12-23T13:37:49.320Z,98.46
2022-12-23T13:40:19.261Z,98.30
2022-12-23T13:42:50.121Z,97.16
2022-12-23T13:45:17.961Z,96.93
2022-12-23T13:47:50.477Z,96.72
2022-12-23T13:50:17.735Z,96.51
2022-12-23T13:52:48.605Z,96.18
2022-12-23T13:55:18.754Z,95.07
2022-12-23T13:57:54.534Z,95.19
2022-12-23T14:00:24.835Z,95.11
2022-12-23T14:02:53.601Z,94.67
2022-12-23T14:05:23.600Z,94.88
2022-12-23T14:07:50.822Z,95.08
2022-12-23T14:10:22.158Z,95.26
2022-12-23T14:12:50.996Z,94.68
2022-12-23T14:15:21.027Z,94.72
2022-12-23T14:17:51.187Z,95.11
2022-12-23T14:20:25.424Z,95.55
2022-12-23T14:22:59.163Z,95.66
2022-12-23T14:25:29.200Z,95.95
2022-12-23T14:27:59.368Z,96.19
2022-12-23T14:30:35.308Z,96.39
2022-12-23T14:33:04.467Z,96.58
2022-12-23T14:35:38.523Z,96.71
2022-12-23T14:38:10.788Z,96.71
2022-12-23T14:40:38.056Z,96.56
2022-12-23T14:43:08.150Z,95.89
2022-12-23T14:45:36.388Z,96.15
2022-12-23T14:48:23.142Z,95.80
2022-12-23T14:50:53.185Z,95.80
2022-12-23T14:53:21.664Z,96.11
2022-12-23T14:55:49.910Z,96.22
2022-12-23T14:58:17.186Z,96.39
2022-12-23T15:00:46.517Z,96.41
2022-12-23T15:03:13.686Z,96.56
2022-12-23T15:05:40.925Z,96.58
2022-12-23T15:08:15.640Z,96.80
2022-12-23T15:10:43.702Z,97.76
2022-12-23T15:13:14.591Z,98.75
2022-12-23T15:15:54.595Z,99.09
2022-12-23T15:18:25.067Z,99.49
2022-12-23T15:20:55.079Z,99.58
2022-12-23T15:23:22.075Z,99.80
2022-12-23T15:25:49.436Z,100.00
2022-12-23T15:28:19.098Z,100.00
2022-12-23T15:30:48.565Z,100.00
2022-12-23T15:34:00.590Z,100.00
2022-12-23T15:36:06.623Z,100.00
2022-12-23T15:38:36.674Z,100.00
2022-12-23T15:41:06.008Z,99.37
2022-12-23T15:43:33.019Z,99.34
2022-12-23T15:46:02.994Z,99.36
2022-12-23T15:48:30.987Z,98.84
2022-12-23T15:51:00.999Z,98.35
2022-12-23T15:53:31.790Z,97.65
2022-12-23T15:59:22.251Z,95.65
2022-12-23T16:01:49.004Z,96.05
2022-12-23T16:04:26.665Z,95.98
2022-12-23T16:06:53.960Z,94.49
2022-12-23T16:09:21.006Z,93.92
2022-12-23T16:11:51.285Z,93.76
2022-12-23T16:14:23.448Z,93.49
2022-12-23T16:16:51.351Z,93.33
2022-12-23T16:19:27.891Z,93.69
2022-12-23T16:21:54.610Z,93.75
2022-12-23T16:24:21.441Z,94.20
2022-12-23T16:26:48.200Z,95.05
2022-12-23T16:29:15.136Z,93.70
2022-12-23T16:31:51.098Z,93.66
2022-12-23T16:34:18.968Z,92.92
2022-12-23T16:36:45.697Z,93.81
2022-12-23T16:39:19.391Z,94.02
2022-12-23T16:41:46.108Z,93.91
2022-12-23T16:44:13.109Z,93.31
2022-12-23T16:46:42.366Z,93.14
2022-12-23T16:49:14.315Z,92.22
2022-12-23T16:51:41.773Z,92.10
2022-12-23T16:54:13.196Z,92.54
2022-12-23T16:56:41.142Z,93.24
2022-12-23T16:59:07.851Z,92.46
2022-12-23T17:01:36.774Z,92.71
2022-12-23T17:04:04.316Z,92.73
2022-12-23T17:06:31.037Z,92.12
2022-12-23T17:09:31.775Z,92.48
2022-12-23T17:11:58.440Z,92.01
2022-12-23T17:14:25.737Z,91.58
2022-12-23T17:16:52.554Z,91.13
2022-12-23T17:19:27.270Z,91.06
2022-12-23T17:21:57.706Z,91.06
2022-12-23T17:24:25.772Z,91.65
2022-12-23T17:26:52.945Z,91.84
2022-12-23T17:29:19.772Z,91.63
2022-12-23T17:31:47.937Z,90.77
2022-12-23T17:34:16.020Z,90.50
2022-12-23T17:36:49.248Z,90.89
2022-12-23T17:39:17.028Z,90.80
2022-12-23T17:41:43.729Z,90.94
2022-12-23T17:44:13.655Z,91.13
2022-12-23T17:46:40.538Z,91.44
2022-12-23T17:49:09.084Z,90.90
2022-12-23T17:51:35.765Z,90.82
2022-12-23T17:54:04.767Z,91.08
2022-12-23T17:56:31.560Z,91.19
2022-12-23T17:58:58.732Z,90.62
2022-12-23T18:01:30.049Z,90.67
2022-12-23T18:03:57.566Z,90.56
2022-12-23T18:06:25.049Z,90.66
2022-12-23T18:08:52.017Z,90.23
2022-12-23T18:11:23.534Z,90.64
2022-12-23T18:13:52.349Z,90.85
2022-12-23T18:16:19.116Z,90.72
2022-12-23T18:18:47.079Z,90.25
2022-12-23T18:21:17.401Z,90.04
2022-12-23T18:23:44.135Z,89.69
2022-12-23T18:26:13.205Z,89.89
2022-12-23T18:28:39.995Z,90.32
2022-12-23T18:31:07.080Z,90.13
2022-12-23T18:33:33.798Z,89.38
2022-12-23T18:36:00.562Z,89.77
2022-12-23T18:38:27.319Z,88.79
2022-12-23T18:40:55.141Z,89.69
2022-12-23T18:43:23.254Z,89.76
2022-12-23T18:45:53.245Z,90.15
2022-12-23T18:48:20.543Z,91.00
2022-12-23T18:50:47.256Z,91.42
2022-12-23T18:53:23.511Z,91.24
2022-12-23T18:55:51.355Z,90.87
2022-12-23T18:58:18.405Z,89.91
2022-12-23T19:00:45.549Z,90.35
2022-12-23T19:03:22.134Z,90.38
2022-12-23T19:05:49.273Z,90.63
2022-12-23T19:08:21.867Z,91.03
2022-12-23T19:10:52.686Z,91.00
2022-12-23T19:13:19.403Z,90.63
2022-12-23T19:15:46.244Z,90.67
2022-12-23T19:18:14.398Z,90.45
2022-12-23T19:20:41.896Z,90.14
2022-12-23T19:23:08.609Z,91.20
2022-12-23T19:25:36.475Z,90.77
2022-12-23T19:28:03.344Z,90.59
2022-12-23T19:30:30.061Z,91.04
2022-12-23T19:32:56.846Z,91.57
2022-12-23T19:35:23.625Z,91.41
2022-12-23T19:37:50.423Z,91.21
2022-12-23T19:40:17.279Z,91.57
2022-12-23T19:42:44.081Z,91.51
2022-12-23T19:45:11.430Z,91.28
2022-12-23T19:47:38.544Z,90.63
2022-12-23T19:50:05.877Z,91.69
2022-12-23T19:52:32.934Z,91.58
2022-12-23T19:54:59.575Z,91.53
2022-12-23T19:57:26.203Z,91.39
2022-12-23T19:59:53.898Z,91.43
2022-12-23T20:02:20.760Z,91.64
2022-12-23T20:04:47.619Z,91.75
2022-12-23T20:07:14.320Z,92.63
2022-12-23T20:09:41.037Z,92.37
2022-12-23T20:12:08.034Z,92.24
2022-12-23T20:14:34.733Z,92.28
2022-12-23T20:17:02.021Z,92.76
2022-12-23T20:19:28.911Z,93.01
2022-12-23T20:21:55.629Z,93.07
2022-12-23T20:24:22.336Z,93.56
2022-12-23T20:26:49.087Z,93.13
2022-12-23T20:29:15.847Z,93.01
2022-12-23T20:31:43.627Z,92.94
2022-12-23T20:34:13.689Z,93.22
2022-12-23T20:36:40.435Z,93.21
2022-12-23T20:39:07.208Z,93.17
2022-12-23T20:41:34.356Z,94.04
2022-12-23T20:46:48.228Z,94.10
2022-12-23T20:49:15.008Z,94.07
2022-12-23T20:51:41.795Z,94.20
2022-12-23T20:54:09.627Z,93.61
2022-12-23T20:56:36.552Z,94.36
2022-12-23T20:59:04.309Z,94.37
2022-12-23T21:01:32.888Z,94.57
2022-12-23T21:04:00.965Z,94.68
2022-12-23T21:06:28.480Z,94.81
2022-12-23T21:08:57.474Z,94.90
2022-12-23T21:11:24.261Z,95.00
2022-12-23T21:13:51.373Z,94.99
2022-12-23T21:16:18.862Z,95.36
2022-12-23T21:18:49.020Z,94.99
2022-12-23T21:21:16.024Z,95.21
2022-12-23T21:23:43.204Z,95.65
2022-12-23T21:26:11.892Z,95.86
2022-12-23T21:28:39.532Z,95.55
2022-12-23T21:31:06.940Z,95.95
2022-12-23T21:33:38.240Z,95.57
2022-12-23T21:36:06.449Z,95.41
2022-12-23T21:38:34.299Z,95.44
2022-12-23T21:41:02.551Z,95.27
2022-12-23T21:43:29.932Z,95.27
2022-12-23T21:45:58.273Z,95.94
2022-12-23T21:48:25.440Z,96.15
2022-12-23T21:50:52.241Z,96.20
2022-12-23T21:53:19.227Z,96.13
2022-12-23T21:55:46.417Z,96.51
2022-12-23T21:58:13.212Z,96.20
2022-12-23T22:00:40.086Z,95.96
2022-12-23T22:03:06.991Z,96.38
2022-12-23T22:05:33.843Z,96.40
2022-12-23T22:08:00.799Z,96.77
2022-12-23T22:10:27.699Z,96.69
2022-12-23T22:12:54.579Z,96.67
2022-12-23T22:15:22.109Z,96.21
2022-12-23T22:17:48.955Z,96.58
2022-12-23T22:20:15.997Z,96.73
2022-12-23T22:22:42.733Z,97.35
2022-12-23T22:25:09.820Z,97.17
2022-12-23T22:27:36.597Z,96.99
2022-12-23T22:30:03.738Z,96.71
2022-12-23T22:32:30.543Z,97.37
2022-12-23T22:34:57.810Z,96.79
2022-12-23T22:37:24.653Z,96.86
2022-12-23T22:39:51.706Z,97.00
2022-12-23T22:42:18.560Z,97.32
2022-12-23T22:44:45.612Z,97.10
2022-12-23T22:47:12.571Z,97.46
2022-12-23T22:49:39.570Z,97.87
2022-12-23T22:52:06.398Z,97.92
2022-12-23T22:54:33.331Z,97.90
2022-12-23T22:57:00.157Z,98.20
2022-12-23T22:59:26.995Z,98.38
2022-12-23T23:01:54.019Z,98.70
2022-12-23T23:04:20.872Z,99.09
2022-12-23T23:06:47.688Z,99.20
2022-12-23T23:09:17.002Z,99.10
2022-12-23T23:11:44.677Z,99.07
2022-12-23T23:14:12.215Z,99.54
2022-12-23T23:16:39.288Z,99.71
2022-12-23T23:19:06.625Z,99.83
2022-12-23T23:21:34.538Z,99.30
2022-12-23T23:24:01.344Z,99.37
2022-12-23T23:26:28.161Z,99.62
2022-12-23T23:28:55.369Z,99.98
2022-12-23T23:34:12.687Z,100.00
2022-12-23T23:36:40.110Z,100.00
2022-12-23T23:39:07.047Z,100.00
2022-12-23T23:41:34.729Z,100.00
2022-12-23T23:44:01.602Z,100.00
2022-12-23T23:46:28.563Z,100.00
2022-12-23T23:48:55.278Z,100.00
2022-12-23T23:51:22.040Z,100.00
2022-12-23T23:53:48.980Z,100.00
2022-12-23T23:56:22.062Z,100.00
2022-12-23T23:58:52.054Z,100.00
